Time;durP1;ratioP1;P1;durP2;ratioP2;P2;SDS_P1;SDS_P2;PMS_P1;PMS_P2;Temp;Humidity;BMP_temperature;BMP_pressure;BME280_temperature;BME280_humidity;BME280_pressure;Samples;Min_cycle;Max_cycle;Signal;HPM_P1;HPM_P2
2022/10/18 00:00:52;;;;;;;66.25;31.48;;;12.80;99.90;;;;;;5037078;28;20049;-72
2022/10/18 00:03:18;;;;;;;58.97;26.92;;;12.80;99.90;;;;;;5054204;28;20366;-72
2022/10/18 00:05:43;;;;;;;92.22;32.42;;;12.70;99.90;;;;;;5054501;28;20049;-72
2022/10/18 00:08:09;;;;;;;83.82;32.03;;;12.80;99.90;;;;;;5036624;28;20376;-71
2022/10/18 00:10:34;;;;;;;57.15;27.33;;;12.70;99.90;;;;;;5054625;28;20053;-71
2022/10/18 00:13:00;;;;;;;89.68;30.80;;;12.70;99.90;;;;;;5054245;28;20098;-72
2022/10/18 00:15:26;;;;;;;63.53;30.90;;;12.70;99.90;;;;;;5036696;28;20049;-72
2022/10/18 00:17:51;;;;;;;81.10;31.30;;;12.70;99.90;;;;;;5057913;28;20044;-71
2022/10/18 00:20:17;;;;;;;61.55;28.73;;;12.80;99.90;;;;;;5058003;28;20078;-72
2022/10/18 00:22:42;;;;;;;97.13;33.13;;;12.60;99.90;;;;;;5040081;28;20071;-72
2022/10/18 00:25:09;;;;;;;81.93;31.65;;;12.60;99.90;;;;;;5039836;28;20358;-72
2022/10/18 00:27:35;;;;;;;89.25;33.22;;;12.60;99.90;;;;;;5057678;28;20041;-72
2022/10/18 00:30:01;;;;;;;142.15;36.78;;;12.60;99.90;;;;;;5040782;28;20049;-71
2022/10/18 00:32:26;;;;;;;55.63;26.80;;;12.50;99.90;;;;;;5057854;28;20045;-73
2022/10/18 00:34:52;;;;;;;72.53;30.70;;;12.60;99.90;;;;;;5041104;28;20081;-71
2022/10/18 00:37:18;;;;;;;60.67;26.92;;;12.40;99.90;;;;;;5017358;28;20069;-72
2022/10/18 00:39:44;;;;;;;56.17;26.45;;;12.50;99.90;;;;;;5016424;28;20367;-73
2022/10/18 00:42:17;;;;;;;87.72;32.67;;;12.50;99.90;;;;;;5017714;28;20129;-71
2022/10/18 00:44:43;;;;;;;55.78;27.20;;;12.40;99.90;;;;;;5018076;28;20447;-71
2022/10/18 00:47:11;;;;;;;69.80;29.23;;;12.40;99.90;;;;;;5017118;28;20050;-72
2022/10/18 00:49:39;;;;;;;58.40;27.42;;;12.40;99.90;;;;;;5017835;28;20046;-71
2022/10/18 00:52:22;;;;;;;115.32;37.20;;;12.40;99.90;;;;;;5017783;28;20050;-72
2022/10/18 00:54:50;;;;;;;55.17;25.42;;;12.40;99.90;;;;;;5000020;28;20060;-75
2022/10/18 00:57:16;;;;;;;94.88;32.75;;;12.40;99.90;;;;;;5017609;28;20056;-71
2022/10/18 00:59:43;;;;;;;106.53;34.50;;;12.40;99.90;;;;;;5017594;28;20117;-71
2022/10/18 01:02:09;;;;;;;57.58;25.48;;;12.40;99.90;;;;;;5016876;28;20053;-72
2022/10/18 01:04:35;;;;;;;43.72;23.98;;;12.40;99.90;;;;;;5017374;28;20109;-72
2022/10/18 01:07:19;;;;;;;56.25;25.73;;;12.40;99.90;;;;;;5017018;28;20451;-72
2022/10/18 01:10:12;;;;;;;119.88;31.20;;;12.30;99.90;;;;;;5017203;28;20115;-72
2022/10/18 01:13:07;;;;;;;62.00;25.10;;;12.30;99.90;;;;;;5017287;28;20050;-73
2022/10/18 01:15:59;;;;;;;82.55;29.17;;;12.30;99.90;;;;;;5017111;28;20089;-71
2022/10/18 01:18:41;;;;;;;52.33;23.92;;;12.20;99.90;;;;;;5005805;28;20101;-70
2022/10/18 01:21:16;;;;;;;64.38;27.67;;;12.20;99.90;;;;;;5017105;28;20069;-72
2022/10/18 01:24:18;;;;;;;124.13;36.35;;;12.10;99.90;;;;;;5015600;28;20112;-73
2022/10/18 01:27:00;;;;;;;38.67;21.35;;;12.10;99.90;;;;;;5016689;28;20463;-71
2022/10/18 01:30:00;;;;;;;61.45;26.92;;;12.10;99.90;;;;;;5016266;28;20045;-73
2022/10/18 01:32:31;;;;;;;68.18;25.15;;;12.10;99.90;;;;;;5016432;28;20065;-72
2022/10/18 01:35:01;;;;;;;76.93;28.65;;;12.00;99.90;;;;;;5016192;28;20132;-73
2022/10/18 01:37:29;;;;;;;74.03;29.10;;;12.00;99.90;;;;;;5056367;28;20040;-73
2022/10/18 01:39:57;;;;;;;72.55;25.75;;;12.00;99.90;;;;;;5056724;28;20190;-73
2022/10/18 01:42:24;;;;;;;167.82;34.00;;;12.10;99.90;;;;;;5056700;28;20123;-72
2022/10/18 01:44:52;;;;;;;81.57;27.38;;;12.00;99.90;;;;;;5039022;28;20045;-72
2022/10/18 01:47:19;;;;;;;69.45;27.25;;;11.90;99.90;;;;;;5056394;28;20045;-73
2022/10/18 01:49:44;;;;;;;43.90;23.65;;;11.90;99.90;;;;;;5056019;28;20060;-74
2022/10/18 01:52:13;;;;;;;119.53;31.55;;;11.90;99.90;;;;;;5056054;28;20045;-72
2022/10/18 01:54:43;;;;;;;50.33;23.75;;;11.90;99.90;;;;;;5038900;28;20052;-71
2022/10/18 01:57:39;;;;;;;53.63;24.15;;;11.90;99.90;;;;;;5037786;28;20114;-71
2022/10/18 02:00:09;;;;;;;90.70;27.85;;;12.00;99.90;;;;;;5056486;28;20100;-72
2022/10/18 02:02:54;;;;;;;78.95;29.23;;;12.00;99.90;;;;;;5038890;28;20381;-74
2022/10/18 02:05:27;;;;;;;61.33;28.10;;;12.00;99.90;;;;;;5056207;28;20044;-73
2022/10/18 02:08:13;;;;;;;121.43;33.67;;;12.00;99.90;;;;;;5055980;28;20128;-71
2022/10/18 02:10:43;;;;;;;204.23;38.40;;;12.10;99.90;;;;;;5055732;28;20334;-71
2022/10/18 02:13:16;;;;;;;66.85;27.20;;;12.10;99.90;;;;;;5055410;28;20041;-71
2022/10/18 02:15:45;;;;;;;242.15;42.78;;;12.10;99.90;;;;;;5038290;28;20465;-72
2022/10/18 02:18:19;;;;;;;48.80;23.75;;;12.20;99.90;;;;;;5022239;28;20052;-72
2022/10/18 02:20:46;;;;;;;109.60;33.63;;;12.10;99.90;;;;;;5056379;28;20048;-72
2022/10/18 02:23:13;;;;;;;74.40;28.92;;;12.00;99.90;;;;;;5056489;28;20072;-70
2022/10/18 02:25:39;;;;;;;124.80;35.05;;;12.10;99.90;;;;;;5038323;28;20049;-71
2022/10/18 02:28:05;;;;;;;49.58;25.27;;;12.10;99.90;;;;;;5055722;28;20122;-71
2022/10/18 02:30:50;;;;;;;60.65;25.58;;;12.00;99.90;;;;;;5055433;28;20128;-72
2022/10/18 02:33:29;;;;;;;157.98;34.17;;;12.10;99.90;;;;;;5055475;28;20040;-71
2022/10/18 02:36:01;;;;;;;52.25;24.42;;;12.00;99.90;;;;;;5055788;28;20381;-72
2022/10/18 02:38:29;;;;;;;84.43;29.90;;;12.00;99.90;;;;;;5055524;28;20057;-72
2022/10/18 02:40:54;;;;;;;85.63;29.92;;;12.00;99.90;;;;;;5037460;28;20445;-72
2022/10/18 02:43:24;;;;;;;59.10;26.23;;;12.00;99.90;;;;;;5055265;28;20041;-72
2022/10/18 02:45:49;;;;;;;131.25;32.75;;;12.00;99.90;;;;;;5055575;28;20045;-70
2022/10/18 02:48:15;;;;;;;63.55;25.92;;;12.00;99.90;;;;;;5037818;28;20523;-73
2022/10/18 02:50:40;;;;;;;56.10;24.75;;;11.90;99.90;;;;;;5055276;28;20482;-72
2022/10/18 02:53:06;;;;;;;47.17;23.88;;;12.00;99.90;;;;;;5037716;28;20429;-72
2022/10/18 02:55:32;;;;;;;49.05;22.08;;;12.00;99.90;;;;;;5055212;28;20048;-71
2022/10/18 02:57:58;;;;;;;54.60;23.98;;;12.00;99.90;;;;;;5038160;28;20118;-71
2022/10/18 03:00:23;;;;;;;66.85;25.65;;;12.00;99.90;;;;;;5038234;28;20438;-72
2022/10/18 03:02:49;;;;;;;56.28;27.17;;;12.00;99.90;;;;;;5037537;28;20041;-72
2022/10/18 03:05:14;;;;;;;235.05;44.92;;;12.00;99.90;;;;;;5037637;28;20041;-71
2022/10/18 03:07:40;;;;;;;159.07;36.28;;;12.10;99.90;;;;;;5054398;28;20055;-72
2022/10/18 03:10:06;;;;;;;188.13;40.05;;;12.20;99.90;;;;;;5036744;28;20044;-71
2022/10/18 03:12:32;;;;;;;100.38;30.60;;;12.20;99.90;;;;;;5038315;28;20044;-72
2022/10/18 03:14:57;;;;;;;60.78;27.02;;;12.20;99.90;;;;;;5055067;28;20045;-71
2022/10/18 03:17:23;;;;;;;50.97;23.42;;;12.20;99.90;;;;;;5055042;28;20053;-70
2022/10/18 03:19:48;;;;;;;234.30;38.67;;;12.30;99.90;;;;;;5055650;28;20098;-72
2022/10/18 03:22:14;;;;;;;219.90;40.78;;;12.30;99.90;;;;;;5055112;28;20063;-71
2022/10/18 03:24:40;;;;;;;72.70;28.23;;;12.30;99.90;;;;;;5037441;28;20057;-73
2022/10/18 03:27:05;;;;;;;216.98;41.95;;;12.50;99.90;;;;;;5054361;28;20056;-74
2022/10/18 03:29:31;;;;;;;62.45;26.15;;;12.60;99.90;;;;;;5055027;28;20056;-72
2022/10/18 03:31:56;;;;;;;99.95;28.58;;;12.50;99.90;;;;;;5055328;28;20048;-71
2022/10/18 03:34:22;;;;;;;95.30;28.75;;;12.50;99.90;;;;;;5055551;28;20049;-71
2022/10/18 03:36:47;;;;;;;79.68;28.80;;;12.50;99.90;;;;;;5055006;28;20456;-71
2022/10/18 03:39:13;;;;;;;84.90;28.75;;;12.60;99.90;;;;;;5054390;28;20053;-71
2022/10/18 03:41:38;;;;;;;95.47;26.40;;;12.50;99.90;;;;;;5054222;28;20029;-72
2022/10/18 03:44:04;;;;;;;79.00;27.85;;;12.50;99.90;;;;;;5037061;28;20086;-71
2022/10/18 03:46:30;;;;;;;68.45;27.42;;;12.60;99.90;;;;;;5055352;28;20045;-72
2022/10/18 03:48:55;;;;;;;143.65;31.35;;;12.60;99.90;;;;;;5037126;28;20139;-70
2022/10/18 03:51:21;;;;;;;104.45;29.13;;;12.60;99.90;;;;;;5056041;28;20150;-71
2022/10/18 03:53:46;;;;;;;123.40;31.73;;;12.60;99.90;;;;;;5058449;28;20040;-72
2022/10/18 03:56:12;;;;;;;100.43;29.02;;;12.60;99.90;;;;;;5057888;28;20530;-72
2022/10/18 03:58:37;;;;;;;48.25;22.80;;;12.60;99.90;;;;;;5006597;28;20389;-72
2022/10/18 04:01:03;;;;;;;52.78;21.67;;;12.60;99.90;;;;;;5022258;28;20069;-70
2022/10/18 04:03:29;;;;;;;62.03;23.83;;;12.70;99.90;;;;;;5044126;28;20106;-72
2022/10/18 04:05:54;;;;;;;51.70;22.92;;;12.70;99.90;;;;;;5028854;28;20335;-72
2022/10/18 04:08:20;;;;;;;90.55;24.80;;;12.60;99.90;;;;;;5056862;28;20045;-71
2022/10/18 04:10:45;;;;;;;43.20;21.55;;;12.60;99.90;;;;;;5040553;28;20119;-70
2022/10/18 04:13:11;;;;;;;61.65;21.73;;;12.60;99.90;;;;;;5058165;28;20406;-72
2022/10/18 04:15:37;;;;;;;68.07;22.17;;;12.60;99.90;;;;;;5058057;28;20049;-72
2022/10/18 04:18:02;;;;;;;76.03;23.38;;;12.60;99.90;;;;;;5040427;28;20081;-72
2022/10/18 04:20:28;;;;;;;168.75;29.73;;;12.60;99.90;;;;;;5058177;28;20124;-71
2022/10/18 04:22:56;;;;;;;32.05;16.65;;;12.60;99.90;;;;;;5058097;28;20041;-73
2022/10/18 04:25:21;;;;;;;54.13;21.13;;;12.50;99.90;;;;;;5057923;28;20456;-72
2022/10/18 04:27:47;;;;;;;68.28;21.35;;;12.50;99.90;;;;;;5040409;28;20053;-72
2022/10/18 04:30:12;;;;;;;71.03;21.98;;;12.60;99.90;;;;;;5057667;28;20044;-73
2022/10/18 04:32:38;;;;;;;52.03;20.35;;;12.50;99.90;;;;;;5056199;28;20396;-70
2022/10/18 04:35:05;;;;;;;41.83;16.88;;;12.60;99.90;;;;;;5056722;28;20335;-72
2022/10/18 04:37:31;;;;;;;34.67;18.15;;;12.50;99.90;;;;;;5057691;28;20449;-72
2022/10/18 04:39:57;;;;;;;117.25;24.88;;;12.50;99.90;;;;;;5056963;28;20033;-70
2022/10/18 04:42:23;;;;;;;61.65;21.08;;;12.50;99.90;;;;;;5057316;28;20110;-70
2022/10/18 04:44:49;;;;;;;50.05;19.20;;;12.50;99.90;;;;;;5056941;28;20370;-71
2022/10/18 04:47:15;;;;;;;66.43;19.45;;;12.50;99.90;;;;;;5056876;28;20049;-71
2022/10/18 04:49:41;;;;;;;60.95;20.45;;;12.50;99.90;;;;;;5057647;28;20124;-71
2022/10/18 04:52:06;;;;;;;75.25;20.73;;;12.50;99.90;;;;;;5057264;28;20521;-71
2022/10/18 04:54:32;;;;;;;51.15;19.52;;;12.50;99.90;;;;;;5056736;28;20041;-73
2022/10/18 04:56:58;;;;;;;64.72;18.83;;;12.50;99.90;;;;;;5056821;28;20095;-72
2022/10/18 04:59:23;;;;;;;39.78;16.17;;;12.50;99.90;;;;;;5039465;28;20076;-71
2022/10/18 05:01:49;;;;;;;48.78;19.67;;;12.40;99.90;;;;;;5054946;28;20435;-70
2022/10/18 05:04:14;;;;;;;38.20;16.75;;;12.40;99.90;;;;;;5055639;28;20029;-71
2022/10/18 05:06:40;;;;;;;43.88;18.83;;;12.50;99.90;;;;;;5059561;28;20084;-70
2022/10/18 05:09:06;;;;;;;81.53;21.55;;;12.40;99.90;;;;;;5039057;28;20179;-70
2022/10/18 05:11:31;;;;;;;38.55;18.20;;;12.40;99.90;;;;;;5056550;28;20037;-72
2022/10/18 05:13:57;;;;;;;51.97;18.33;;;12.40;99.90;;;;;;5056720;28;20087;-70
2022/10/18 05:16:23;;;;;;;38.40;17.77;;;12.40;99.90;;;;;;5056094;28;20045;-72
2022/10/18 05:18:48;;;;;;;38.58;16.70;;;12.40;99.90;;;;;;5038839;28;20151;-70
2022/10/18 05:21:15;;;;;;;33.20;15.48;;;12.60;99.90;;;;;;5056495;28;20049;-70
2022/10/18 05:23:40;;;;;;;39.85;15.98;;;12.30;99.90;;;;;;5056324;28;20049;-72
2022/10/18 05:26:07;;;;;;;39.17;16.90;;;12.30;99.90;;;;;;5038994;28;20373;-70
2022/10/18 05:28:33;;;;;;;28.15;15.00;;;12.30;99.90;;;;;;5056222;28;20445;-70
2022/10/18 05:31:04;;;;;;;62.53;20.35;;;12.30;99.90;;;;;;5055964;28;20049;-71
2022/10/18 05:33:29;;;;;;;25.23;14.10;;;12.30;99.90;;;;;;5055207;28;20051;-70
2022/10/18 05:35:55;;;;;;;42.60;15.98;;;12.20;99.90;;;;;;5038331;28;20425;-71
2022/10/18 05:38:21;;;;;;;60.15;18.38;;;12.30;99.90;;;;;;5039175;28;20045;-69
2022/10/18 05:40:46;;;;;;;174.27;27.38;;;12.30;99.90;;;;;;5023513;28;20130;-72
2022/10/18 05:43:12;;;;;;;51.30;18.88;;;12.20;99.90;;;;;;5055732;28;20112;-70
2022/10/18 05:45:37;;;;;;;121.75;22.10;;;12.20;99.90;;;;;;5038918;28;20034;-70
2022/10/18 05:48:04;;;;;;;47.05;17.80;;;12.20;99.90;;;;;;5051259;28;20107;-71
2022/10/18 05:50:30;;;;;;;65.32;17.48;;;12.20;99.90;;;;;;5048466;28;20045;-70
2022/10/18 05:52:56;;;;;;;37.25;16.52;;;12.20;99.90;;;;;;5044156;28;20124;-72
2022/10/18 05:55:22;;;;;;;52.65;15.75;;;12.20;99.90;;;;;;5051252;28;20456;-71
2022/10/18 05:57:51;;;;;;;43.67;15.90;;;12.20;99.90;;;;;;5049279;28;20115;-70
2022/10/18 06:00:17;;;;;;;72.57;18.42;;;12.20;99.90;;;;;;5035603;28;20057;-71
2022/10/18 06:02:43;;;;;;;90.07;21.40;;;12.20;99.90;;;;;;4991785;28;20084;-72
2022/10/18 06:05:09;;;;;;;77.95;19.33;;;12.20;99.90;;;;;;5050244;28;20073;-70
2022/10/18 06:07:34;;;;;;;52.67;16.50;;;12.20;99.90;;;;;;5050534;28;20053;-71
2022/10/18 06:10:00;;;;;;;73.53;18.35;;;12.20;99.90;;;;;;5054652;28;20496;-72
2022/10/18 06:12:26;;;;;;;40.97;14.98;;;12.10;99.90;;;;;;5054433;28;20053;-71
2022/10/18 06:14:51;;;;;;;29.55;13.45;;;12.10;99.90;;;;;;5054706;28;20033;-71
2022/10/18 06:17:17;;;;;;;67.63;15.38;;;12.10;99.90;;;;;;5055296;28;20453;-71
2022/10/18 06:19:43;;;;;;;46.28;15.75;;;12.00;99.90;;;;;;5055079;28;20082;-71
2022/10/18 06:22:10;;;;;;;35.70;14.10;;;12.00;99.90;;;;;;5054645;28;20334;-72
2022/10/18 06:24:36;;;;;;;47.97;14.27;;;12.00;99.90;;;;;;5055374;28;20060;-71
2022/10/18 06:27:07;;;;;;;69.53;16.55;;;12.00;99.90;;;;;;5055392;28;20510;-72
2022/10/18 06:29:37;;;;;;;36.55;14.02;;;11.90;99.90;;;;;;5038117;28;20469;-72
2022/10/18 06:32:04;;;;;;;38.60;14.18;;;12.00;99.90;;;;;;5054966;28;20072;-71
2022/10/18 06:34:30;;;;;;;78.35;16.33;;;11.80;99.90;;;;;;5054076;28;20057;-71
2022/10/18 06:36:55;;;;;;;105.63;19.45;;;11.80;99.90;;;;;;5054847;28;20343;-73
2022/10/18 06:39:21;;;;;;;93.60;18.23;;;11.80;99.90;;;;;;5037724;28;20121;-71
2022/10/18 06:41:47;;;;;;;37.75;14.32;;;11.80;99.90;;;;;;5054269;28;20045;-72
2022/10/18 06:44:13;;;;;;;72.70;17.75;;;11.70;99.90;;;;;;5054937;28;20037;-70
2022/10/18 06:46:43;;;;;;;48.88;15.23;;;11.70;99.90;;;;;;5054771;28;20045;-71
2022/10/18 06:49:10;;;;;;;66.35;16.02;;;11.70;99.90;;;;;;5054674;28;20056;-68
2022/10/18 06:51:35;;;;;;;40.33;12.95;;;11.70;99.90;;;;;;5055018;28;20049;-70
2022/10/18 06:54:02;;;;;;;30.88;12.88;;;11.70;99.90;;;;;;5054909;28;20373;-69
2022/10/18 06:56:27;;;;;;;41.40;13.38;;;11.80;99.90;;;;;;5054211;28;20048;-70
2022/10/18 06:58:53;;;;;;;31.95;13.68;;;11.70;99.90;;;;;;5055050;28;20048;-71
2022/10/18 07:01:19;;;;;;;34.03;13.48;;;11.70;99.90;;;;;;5054506;28;20056;-69
2022/10/18 07:03:46;;;;;;;43.95;13.70;;;11.80;99.90;;;;;;5020450;28;20059;-70
2022/10/18 07:06:14;;;;;;;35.65;12.55;;;11.90;99.90;;;;;;5054599;28;20315;-70
2022/10/18 07:08:40;;;;;;;41.38;13.35;;;11.90;99.90;;;;;;5037192;28;20148;-69
2022/10/18 07:11:06;;;;;;;37.55;12.48;;;11.90;99.90;;;;;;5054177;28;20131;-69
2022/10/18 07:13:33;;;;;;;73.68;15.10;;;11.90;99.90;;;;;;5047825;28;20037;-70
2022/10/18 07:16:07;;;;;;;72.80;15.60;;;12.00;99.90;;;;;;5025040;28;20063;-69
2022/10/18 07:18:34;;;;;;;90.55;15.60;;;12.00;99.90;;;;;;5044050;28;20042;-71
2022/10/18 07:21:05;;;;;;;67.35;13.23;;;12.10;99.90;;;;;;5036644;28;20053;-71
2022/10/18 07:23:35;;;;;;;127.65;18.58;;;12.10;99.90;;;;;;5036563;28;20076;-71
2022/10/18 07:26:03;;;;;;;55.97;13.00;;;12.10;99.90;;;;;;5033604;28;20037;-68
2022/10/18 07:28:29;;;;;;;48.53;11.95;;;12.20;99.90;;;;;;5039209;28;20103;-68
2022/10/18 07:30:55;;;;;;;36.67;11.85;;;12.10;99.90;;;;;;5040059;28;20433;-70
2022/10/18 07:33:22;;;;;;;53.17;12.57;;;12.10;99.90;;;;;;5020673;28;20056;-69
2022/10/18 07:35:47;;;;;;;59.90;14.18;;;12.10;99.90;;;;;;5038448;28;20064;-70
2022/10/18 07:38:13;;;;;;;23.15;10.70;;;12.30;99.90;;;;;;5038377;28;20053;-70
2022/10/18 07:40:38;;;;;;;47.25;13.45;;;12.20;99.90;;;;;;5052782;28;20071;-68
2022/10/18 07:43:04;;;;;;;19.23;10.32;;;12.40;99.90;;;;;;5040187;28;20343;-68
2022/10/18 07:45:30;;;;;;;39.88;12.50;;;12.50;99.90;;;;;;5039516;28;20055;-71
2022/10/18 07:47:56;;;;;;;46.55;13.02;;;12.40;99.90;;;;;;5046326;28;20417;-70
2022/10/18 07:50:23;;;;;;;26.20;12.43;;;12.50;99.90;;;;;;5037731;28;20051;-71
2022/10/18 07:52:48;;;;;;;44.03;12.88;;;12.60;99.90;;;;;;5038094;28;20462;-70
2022/10/18 07:55:14;;;;;;;22.10;9.55;;;12.60;99.90;;;;;;5038303;28;20045;-69
2022/10/18 07:57:40;;;;;;;17.05;8.93;;;12.70;99.90;;;;;;5037358;28;20045;-68
2022/10/18 08:00:07;;;;;;;18.38;8.65;;;12.80;99.90;;;;;;5047813;28;20122;-68
2022/10/18 08:02:33;;;;;;;34.03;11.40;;;12.80;99.90;;;;;;5057946;28;20049;-69
2022/10/18 08:04:59;;;;;;;28.90;10.02;;;12.80;99.90;;;;;;5057212;28;20048;-69
2022/10/18 08:07:25;;;;;;;18.77;9.10;;;12.80;99.90;;;;;;5057672;28;20419;-71
2022/10/18 08:09:50;;;;;;;13.02;9.23;;;12.80;99.90;;;;;;5039438;28;20373;-69
2022/10/18 08:12:16;;;;;;;15.90;9.82;;;12.80;99.90;;;;;;5057654;28;20037;-70
2022/10/18 08:14:41;;;;;;;22.20;10.93;;;12.90;99.90;;;;;;5052782;28;20041;-71
2022/10/18 08:17:07;;;;;;;19.48;11.13;;;12.90;99.90;;;;;;5057466;28;20076;-71
2022/10/18 08:19:33;;;;;;;29.35;10.73;;;13.00;99.90;;;;;;5057676;28;20061;-72
2022/10/18 08:21:58;;;;;;;25.58;10.05;;;13.10;99.90;;;;;;5057567;28;20048;-71
2022/10/18 08:24:24;;;;;;;15.23;8.93;;;13.10;99.90;;;;;;5057648;28;20041;-72
2022/10/18 08:26:50;;;;;;;19.13;10.18;;;13.10;99.90;;;;;;5057007;28;20041;-73
2022/10/18 08:29:15;;;;;;;15.65;8.65;;;13.20;99.90;;;;;;5039059;28;20045;-69
2022/10/18 08:31:41;;;;;;;14.18;9.25;;;13.10;99.90;;;;;;5057092;28;20049;-68
2022/10/18 08:34:06;;;;;;;18.88;9.80;;;13.20;99.90;;;;;;5056895;28;20049;-69
2022/10/18 08:36:32;;;;;;;13.43;9.13;;;13.10;99.90;;;;;;5057280;28;20053;-70
2022/10/18 08:38:58;;;;;;;15.23;9.13;;;13.10;99.90;;;;;;5040286;28;20129;-71
2022/10/18 08:41:35;;;;;;;15.68;8.57;;;13.00;99.90;;;;;;5057467;28;20045;-69
2022/10/18 08:44:04;;;;;;;17.70;9.30;;;12.90;99.90;;;;;;5038861;28;20037;-70
2022/10/18 08:46:32;;;;;;;18.50;10.07;;;12.80;99.90;;;;;;5056901;28;20136;-72
2022/10/18 08:49:00;;;;;;;20.00;9.27;;;12.90;99.90;;;;;;5056628;28;20052;-69
2022/10/18 08:51:30;;;;;;;15.23;8.88;;;12.90;99.90;;;;;;5057436;28;20076;-70
2022/10/18 08:54:11;;;;;;;17.73;7.78;;;12.90;99.90;;;;;;5055930;28;20465;-68
2022/10/18 08:56:40;;;;;;;16.95;8.32;;;12.80;99.90;;;;;;5056711;28;20053;-68
2022/10/18 08:59:10;;;;;;;11.93;7.45;;;12.70;99.90;;;;;;5038872;28;20057;-68
2022/10/18 09:01:45;;;;;;;14.15;7.60;;;12.70;99.90;;;;;;5055927;28;20053;-69
2022/10/18 09:04:22;;;;;;;15.05;7.50;;;12.60;99.90;;;;;;5056523;28;20041;-68
2022/10/18 09:07:14;;;;;;;12.25;7.25;;;12.60;99.90;;;;;;5056807;28;20132;-69
2022/10/18 09:10:17;;;;;;;15.35;7.88;;;12.60;99.90;;;;;;5057040;28;20106;-69
2022/10/18 09:13:01;;;;;;;13.10;6.65;;;12.60;99.90;;;;;;5056159;28;20060;-69
2022/10/18 09:15:43;;;;;;;16.42;7.82;;;12.60;99.90;;;;;;5056472;28;20040;-69
2022/10/18 09:18:20;;;;;;;15.50;7.40;;;12.60;99.90;;;;;;5056412;28;20056;-67
2022/10/18 09:20:59;;;;;;;14.65;6.65;;;12.60;99.90;;;;;;5057028;28;20053;-69
2022/10/18 09:23:30;;;;;;;11.45;6.47;;;12.70;99.90;;;;;;5056781;28;20049;-69
2022/10/18 09:26:05;;;;;;;22.20;8.00;;;12.70;99.90;;;;;;5041948;28;20118;-69
2022/10/18 09:29:01;;;;;;;13.50;7.75;;;12.70;99.90;;;;;;5024226;28;20477;-70
2022/10/18 09:32:00;;;;;;;17.30;7.10;;;12.80;99.90;;;;;;5056011;28;20480;-70
2022/10/18 09:34:38;;;;;;;15.40;7.30;;;12.80;99.90;;;;;;5055781;28;20468;-70
2022/10/18 09:37:04;;;;;;;17.15;6.13;;;12.80;99.90;;;;;;5038744;28;20057;-72
2022/10/18 09:39:34;;;;;;;13.13;6.68;;;12.90;99.90;;;;;;5055578;28;20453;-69
2022/10/18 09:42:34;;;;;;;16.38;5.95;;;12.90;99.90;;;;;;5037898;28;20061;-69
2022/10/18 09:45:19;;;;;;;16.55;6.45;;;12.90;99.90;;;;;;5042562;28;20075;-70
2022/10/18 09:47:52;;;;;;;20.23;5.88;;;13.00;99.90;;;;;;5055587;28;20128;-71
2022/10/18 09:50:26;;;;;;;17.40;4.18;;;13.00;99.90;;;;;;5055399;28;20128;-71
2022/10/18 09:53:19;;;;;;;14.52;3.45;;;13.10;99.90;;;;;;5055968;28;20136;-71
2022/10/18 09:56:06;;;;;;;14.30;3.67;;;13.10;99.90;;;;;;5038849;28;20045;-71
2022/10/18 09:58:45;;;;;;;14.52;3.45;;;13.20;99.90;;;;;;5043592;28;20045;-70
2022/10/18 10:01:14;;;;;;;18.13;3.28;;;13.30;99.90;;;;;;5055162;28;20450;-72
2022/10/18 10:03:41;;;;;;;11.77;4.07;;;13.30;99.90;;;;;;5055402;28;20116;-69
2022/10/18 10:06:13;;;;;;;12.70;3.50;;;13.50;99.90;;;;;;5037507;28;20203;-70
2022/10/18 10:08:47;;;;;;;14.13;3.53;;;13.50;99.90;;;;;;5055350;28;20488;-70
2022/10/18 10:11:39;;;;;;;14.45;3.38;;;13.50;99.90;;;;;;5055368;28;20453;-69
2022/10/18 10:14:12;;;;;;;12.15;2.85;;;13.60;99.90;;;;;;5055570;28;20045;-69
2022/10/18 10:17:05;;;;;;;16.67;3.65;;;13.60;99.90;;;;;;5037507;28;20131;-71
2022/10/18 10:19:56;;;;;;;15.10;3.58;;;13.80;99.90;;;;;;5051619;28;20053;-70
2022/10/18 10:22:48;;;;;;;13.18;3.17;;;13.70;99.90;;;;;;5055333;28;20072;-69
2022/10/18 10:25:34;;;;;;;19.00;4.22;;;13.80;99.90;;;;;;5051370;28;20110;-70
2022/10/18 10:28:11;;;;;;;16.45;3.28;;;13.80;99.90;;;;;;5036497;28;20084;-69
2022/10/18 10:33:34;;;;;;;13.98;3.42;;;13.90;99.90;;;;;;5008139;22;19925;-69
2022/10/18 10:36:03;;;;;;;14.63;2.70;;;14.00;99.90;;;;;;5013338;28;20223;-71
2022/10/18 10:38:29;;;;;;;12.38;2.90;;;14.10;99.90;;;;;;5015265;28;20056;-71
2022/10/18 10:40:56;;;;;;;13.80;2.90;;;14.30;99.90;;;;;;5014950;28;20430;-70
2022/10/18 10:43:34;;;;;;;14.10;2.95;;;14.30;99.90;;;;;;5015497;28;20037;-70
2022/10/18 10:46:08;;;;;;;14.85;3.80;;;14.40;99.90;;;;;;5015376;28;20064;-70
2022/10/18 10:48:49;;;;;;;13.13;2.53;;;14.50;99.90;;;;;;5015024;28;20041;-69
2022/10/18 10:51:35;;;;;;;21.10;4.22;;;14.60;99.90;;;;;;4997174;28;20066;-70
2022/10/18 10:54:15;;;;;;;12.77;2.58;;;14.60;99.90;;;;;;4997521;28;20050;-71
2022/10/18 10:57:02;;;;;;;17.83;2.80;;;14.50;99.90;;;;;;4997426;28;20049;-72
2022/10/18 10:59:39;;;;;;;10.93;2.90;;;14.50;99.90;;;;;;5015112;28;20165;-71
2022/10/18 11:02:14;;;;;;;11.88;2.30;;;14.50;99.90;;;;;;4998105;28;20082;-72
2022/10/18 11:04:41;;;;;;;13.93;2.50;;;14.70;99.90;;;;;;5014671;28;20405;-71
2022/10/18 11:07:28;;;;;;;12.63;2.80;;;14.70;99.90;;;;;;4997820;28;20059;-70
2022/10/18 11:10:00;;;;;;;9.93;1.80;;;14.80;99.90;;;;;;5014599;28;20057;-70
2022/10/18 11:12:33;;;;;;;12.30;1.95;;;15.00;99.90;;;;;;5014926;28;20096;-70
2022/10/18 11:15:09;;;;;;;8.27;1.95;;;15.10;99.90;;;;;;4996700;28;20128;-70
2022/10/18 11:18:09;;;;;;;8.45;1.75;;;15.10;99.90;;;;;;4996710;28;20089;-74
2022/10/18 11:20:39;;;;;;;7.72;1.75;;;15.00;99.90;;;;;;4989639;28;20066;-71
2022/10/18 11:23:11;;;;;;;9.52;2.20;;;14.90;99.90;;;;;;5018126;28;20431;-71
2022/10/18 11:26:01;;;;;;;15.77;2.38;;;14.80;99.90;;;;;;5015888;28;20133;-72
2022/10/18 11:28:42;;;;;;;11.57;1.73;;;14.80;99.90;;;;;;4996449;28;20125;-72
2022/10/18 11:31:29;;;;;;;9.55;1.67;;;14.90;99.90;;;;;;5014396;28;20057;-73
2022/10/18 11:34:03;;;;;;;10.57;2.25;;;14.90;99.90;;;;;;5013564;28;20060;-69
2022/10/18 11:36:53;;;;;;;16.58;2.63;;;14.90;99.90;;;;;;4997303;28;20057;-71
2022/10/18 11:39:48;;;;;;;7.80;2.30;;;15.00;99.90;;;;;;5014230;28;20049;-68
2022/10/18 11:42:43;;;;;;;10.75;1.88;;;15.20;99.90;;;;;;5015109;28;20042;-72
2022/10/18 11:45:14;;;;;;;11.60;2.60;;;15.30;99.90;;;;;;5000116;28;20112;-70
2022/10/18 11:47:57;;;;;;;14.73;2.35;;;15.50;99.90;;;;;;5013676;28;20050;-70
2022/10/18 11:50:59;;;;;;;11.43;2.70;;;15.70;99.90;;;;;;5014123;28;20045;-72
2022/10/18 11:53:32;;;;;;;9.05;1.90;;;15.90;99.90;;;;;;5011426;28;20089;-71
2022/10/18 11:55:58;;;;;;;9.13;2.22;;;16.00;99.90;;;;;;4996900;28;20474;-70
2022/10/18 11:59:14;;;;;;;10.68;2.50;;;16.10;99.90;;;;;;5014338;28;20045;-71
2022/10/18 12:01:52;;;;;;;7.80;1.92;;;16.10;99.90;;;;;;4943993;28;20067;-70
2022/10/18 12:04:26;;;;;;;13.45;2.10;;;16.20;99.90;;;;;;5013743;28;20129;-71
2022/10/18 12:06:55;;;;;;;12.13;2.15;;;16.20;99.90;;;;;;4997210;28;20385;-71
2022/10/18 12:09:29;;;;;;;12.13;2.10;;;16.20;99.90;;;;;;5013822;28;20046;-73
2022/10/18 12:12:01;;;;;;;8.48;1.98;;;16.10;99.90;;;;;;5014929;28;20054;-72
2022/10/18 12:14:35;;;;;;;8.00;1.70;;;15.90;99.90;;;;;;5018025;28;20046;-70
2022/10/18 12:17:11;;;;;;;11.90;2.40;;;15.80;99.90;;;;;;5016532;28;20038;-71
2022/10/18 12:19:38;;;;;;;12.55;1.90;;;15.60;99.90;;;;;;5017321;28;20479;-69
2022/10/18 12:22:35;;;;;;;14.30;2.40;;;15.70;99.90;;;;;;5000218;28;20362;-69
2022/10/18 12:25:01;;;;;;;9.15;2.13;;;15.90;99.90;;;;;;5003425;28;20049;-70
2022/10/18 12:27:37;;;;;;;10.82;2.00;;;16.10;99.90;;;;;;5017299;28;20502;-69
2022/10/18 12:30:19;;;;;;;10.35;1.80;;;16.40;99.90;;;;;;5017779;28;20081;-70
2022/10/18 12:32:47;;;;;;;10.07;2.00;;;16.50;99.90;;;;;;5017024;28;20059;-70
2022/10/18 12:35:17;;;;;;;8.05;1.75;;;16.60;99.90;;;;;;5017809;28;20129;-72
2022/10/18 12:38:12;;;;;;;8.55;1.85;;;16.80;99.90;;;;;;5017435;28;20367;-70
2022/10/18 12:40:41;;;;;;;9.52;2.38;;;16.90;99.90;;;;;;5016943;28;20042;-67
2022/10/18 12:43:20;;;;;;;9.82;2.55;;;17.00;99.90;;;;;;5017224;28;20042;-68
2022/10/18 12:45:55;;;;;;;12.02;2.20;;;17.00;99.90;;;;;;5017244;28;20046;-68
2022/10/18 12:48:29;;;;;;;9.70;2.13;;;16.90;99.90;;;;;;5016706;28;20367;-69
2022/10/18 12:51:03;;;;;;;;;;;16.70;99.90;;;;;;5016826;28;20049;-68
2022/10/18 12:53:30;;;;;;;10.82;2.33;;;16.40;99.90;;;;;;5016686;28;19928;-70